sensor_id;sensor_type;location;lat;lon;timestamp;P1;durP1;ratioP1;P2;durP2;ratioP2
11451;SDS011;5782;47.872;11.478;2022-07-09T00:00:35;3.40;;;2.00;;
11451;SDS011;5782;47.872;11.478;2022-07-09T00:03:01;2.80;;;2.00;;
11451;SDS011;5782;47.872;11.478;2022-07-09T00:05:27;2.75;;;2.00;;
11451;SDS011;5782;47.872;11.478;2022-07-09T00:07:53;3.53;;;2.03;;
11451;SDS011;5782;47.872;11.478;2022-07-09T00:10:19;2.28;;;1.90;;
11451;SDS011;5782;47.872;11.478;2022-07-09T00:12:45;3.80;;;1.92;;
11451;SDS011;5782;47.872;11.478;2022-07-09T00:15:11;2.17;;;1.98;;
11451;SDS011;5782;47.872;11.478;2022-07-09T00:17:37;2.70;;;2.08;;
11451;SDS011;5782;47.872;11.478;2022-07-09T00:20:04;3.55;;;2.20;;
11451;SDS011;5782;47.872;11.478;2022-07-09T00:22:33;2.22;;;2.03;;
11451;SDS011;5782;47.872;11.478;2022-07-09T00:24:59;2.78;;;2.08;;
11451;SDS011;5782;47.872;11.478;2022-07-09T00:27:25;3.47;;;1.90;;
11451;SDS011;5782;47.872;11.478;2022-07-09T00:29:51;2.03;;;1.83;;
11451;SDS011;5782;47.872;11.478;2022-07-09T00:32:17;3.15;;;2.22;;
11451;SDS011;5782;47.872;11.478;2022-07-09T00:34:44;4.20;;;1.95;;
11451;SDS011;5782;47.872;11.478;2022-07-09T00:37:10;3.55;;;2.20;;
11451;SDS011;5782;47.872;11.478;2022-07-09T00:39:37;2.33;;;2.10;;
11451;SDS011;5782;47.872;11.478;2022-07-09T00:42:06;3.55;;;1.80;;
11451;SDS011;5782;47.872;11.478;2022-07-09T00:44:33;2.20;;;1.95;;
11451;SDS011;5782;47.872;11.478;2022-07-09T00:46:59;2.30;;;2.00;;
11451;SDS011;5782;47.872;11.478;2022-07-09T00:49:25;3.28;;;2.05;;
11451;SDS011;5782;47.872;11.478;2022-07-09T00:51:53;3.70;;;2.33;;
11451;SDS011;5782;47.872;11.478;2022-07-09T00:54:19;3.80;;;2.28;;
11451;SDS011;5782;47.872;11.478;2022-07-09T00:56:45;5.35;;;1.98;;
11451;SDS011;5782;47.872;11.478;2022-07-09T00:59:11;2.83;;;2.08;;
11451;SDS011;5782;47.872;11.478;2022-07-09T01:01:38;2.55;;;1.90;;
11451;SDS011;5782;47.872;11.478;2022-07-09T01:04:05;3.17;;;2.20;;
11451;SDS011;5782;47.872;11.478;2022-07-09T01:06:31;2.38;;;1.70;;
11451;SDS011;5782;47.872;11.478;2022-07-09T01:09:00;3.13;;;2.00;;
11451;SDS011;5782;47.872;11.478;2022-07-09T01:11:26;2.88;;;1.90;;
11451;SDS011;5782;47.872;11.478;2022-07-09T01:13:52;3.72;;;1.90;;
11451;SDS011;5782;47.872;11.478;2022-07-09T01:16:18;3.35;;;2.10;;
11451;SDS011;5782;47.872;11.478;2022-07-09T01:18:45;3.72;;;2.03;;
11451;SDS011;5782;47.872;11.478;2022-07-09T01:21:12;2.58;;;2.22;;
11451;SDS011;5782;47.872;11.478;2022-07-09T01:23:38;4.10;;;2.20;;
11451;SDS011;5782;47.872;11.478;2022-07-09T01:26:04;4.20;;;2.08;;
11451;SDS011;5782;47.872;11.478;2022-07-09T01:28:30;3.42;;;2.08;;
11451;SDS011;5782;47.872;11.478;2022-07-09T01:30:56;2.22;;;2.00;;
11451;SDS011;5782;47.872;11.478;2022-07-09T01:33:22;2.88;;;1.90;;
11451;SDS011;5782;47.872;11.478;2022-07-09T01:35:49;2.22;;;2.03;;
11451;SDS011;5782;47.872;11.478;2022-07-09T01:38:15;2.70;;;2.38;;
11451;SDS011;5782;47.872;11.478;2022-07-09T01:40:41;2.30;;;2.10;;
11451;SDS011;5782;47.872;11.478;2022-07-09T01:43:07;2.78;;;2.30;;
11451;SDS011;5782;47.872;11.478;2022-07-09T01:45:33;2.70;;;2.05;;
11451;SDS011;5782;47.872;11.478;2022-07-09T01:47:59;3.10;;;2.00;;
11451;SDS011;5782;47.872;11.478;2022-07-09T01:50:25;3.28;;;2.33;;
11451;SDS011;5782;47.872;11.478;2022-07-09T01:52:51;3.08;;;2.08;;
11451;SDS011;5782;47.872;11.478;2022-07-09T01:55:17;2.35;;;2.15;;
11451;SDS011;5782;47.872;11.478;2022-07-09T01:57:44;3.70;;;2.38;;
11451;SDS011;5782;47.872;11.478;2022-07-09T02:00:10;4.57;;;2.30;;
11451;SDS011;5782;47.872;11.478;2022-07-09T02:02:36;2.50;;;2.17;;
11451;SDS011;5782;47.872;11.478;2022-07-09T02:05:03;4.65;;;1.80;;
11451;SDS011;5782;47.872;11.478;2022-07-09T02:07:29;3.28;;;2.40;;
11451;SDS011;5782;47.872;11.478;2022-07-09T02:09:55;2.20;;;2.00;;
11451;SDS011;5782;47.872;11.478;2022-07-09T02:12:21;2.30;;;2.10;;
11451;SDS011;5782;47.872;11.478;2022-07-09T02:14:47;4.50;;;3.05;;
11451;SDS011;5782;47.872;11.478;2022-07-09T02:17:14;3.38;;;2.53;;
11451;SDS011;5782;47.872;11.478;2022-07-09T02:19:40;2.72;;;2.50;;
11451;SDS011;5782;47.872;11.478;2022-07-09T02:22:06;3.50;;;2.60;;
11451;SDS011;5782;47.872;11.478;2022-07-09T02:24:32;3.03;;;2.50;;
11451;SDS011;5782;47.872;11.478;2022-07-09T02:26:58;3.88;;;2.83;;
11451;SDS011;5782;47.872;11.478;2022-07-09T02:29:24;2.58;;;2.35;;
11451;SDS011;5782;47.872;11.478;2022-07-09T02:31:50;3.38;;;2.35;;
11451;SDS011;5782;47.872;11.478;2022-07-09T02:34:16;3.00;;;2.60;;
11451;SDS011;5782;47.872;11.478;2022-07-09T02:36:42;2.90;;;2.60;;
11451;SDS011;5782;47.872;11.478;2022-07-09T02:39:08;2.42;;;2.22;;
11451;SDS011;5782;47.872;11.478;2022-07-09T02:41:34;3.38;;;2.40;;
11451;SDS011;5782;47.872;11.478;2022-07-09T02:44:00;2.47;;;2.28;;
11451;SDS011;5782;47.872;11.478;2022-07-09T02:46:26;6.32;;;2.55;;
11451;SDS011;5782;47.872;11.478;2022-07-09T02:48:52;3.30;;;2.85;;
11451;SDS011;5782;47.872;11.478;2022-07-09T02:51:18;2.92;;;2.60;;
11451;SDS011;5782;47.872;11.478;2022-07-09T02:53:44;2.80;;;2.50;;
11451;SDS011;5782;47.872;11.478;2022-07-09T02:56:10;2.40;;;2.20;;
11451;SDS011;5782;47.872;11.478;2022-07-09T02:58:36;3.10;;;2.55;;
11451;SDS011;5782;47.872;11.478;2022-07-09T03:01:02;3.10;;;2.50;;
11451;SDS011;5782;47.872;11.478;2022-07-09T03:03:31;2.55;;;2.35;;
11451;SDS011;5782;47.872;11.478;2022-07-09T03:05:57;3.15;;;2.72;;
11451;SDS011;5782;47.872;11.478;2022-07-09T03:08:23;3.13;;;2.40;;
11451;SDS011;5782;47.872;11.478;2022-07-09T03:10:49;2.70;;;2.20;;
11451;SDS011;5782;47.872;11.478;2022-07-09T03:13:15;3.85;;;2.30;;
11451;SDS011;5782;47.872;11.478;2022-07-09T03:15:41;7.10;;;2.30;;
11451;SDS011;5782;47.872;11.478;2022-07-09T03:18:07;3.95;;;2.75;;
11451;SDS011;5782;47.872;11.478;2022-07-09T03:20:34;3.17;;;2.83;;
11451;SDS011;5782;47.872;11.478;2022-07-09T03:23:00;4.07;;;2.58;;
11451;SDS011;5782;47.872;11.478;2022-07-09T03:25:26;5.47;;;2.60;;
11451;SDS011;5782;47.872;11.478;2022-07-09T03:27:52;4.20;;;2.72;;
11451;SDS011;5782;47.872;11.478;2022-07-09T03:30:19;3.35;;;2.47;;
11451;SDS011;5782;47.872;11.478;2022-07-09T03:32:45;5.68;;;3.00;;
11451;SDS011;5782;47.872;11.478;2022-07-09T03:35:11;4.15;;;2.83;;
11451;SDS011;5782;47.872;11.478;2022-07-09T03:37:37;3.15;;;2.85;;
11451;SDS011;5782;47.872;11.478;2022-07-09T03:40:03;3.10;;;2.83;;
11451;SDS011;5782;47.872;11.478;2022-07-09T03:42:30;3.78;;;3.00;;
11451;SDS011;5782;47.872;11.478;2022-07-09T03:44:55;3.78;;;2.70;;
11451;SDS011;5782;47.872;11.478;2022-07-09T03:47:22;5.10;;;2.78;;
11451;SDS011;5782;47.872;11.478;2022-07-09T03:49:48;4.47;;;2.72;;
11451;SDS011;5782;47.872;11.478;2022-07-09T03:52:14;3.47;;;2.58;;
11451;SDS011;5782;47.872;11.478;2022-07-09T03:54:40;3.30;;;2.78;;
11451;SDS011;5782;47.872;11.478;2022-07-09T03:57:06;3.90;;;2.80;;
11451;SDS011;5782;47.872;11.478;2022-07-09T03:59:32;3.47;;;3.17;;
11451;SDS011;5782;47.872;11.478;2022-07-09T04:01:58;3.78;;;2.85;;
11451;SDS011;5782;47.872;11.478;2022-07-09T04:04:24;4.85;;;3.17;;
11451;SDS011;5782;47.872;11.478;2022-07-09T04:06:50;3.22;;;2.92;;
11451;SDS011;5782;47.872;11.478;2022-07-09T04:09:16;4.15;;;2.85;;
11451;SDS011;5782;47.872;11.478;2022-07-09T04:11:42;3.05;;;2.70;;
11451;SDS011;5782;47.872;11.478;2022-07-09T04:14:08;2.92;;;2.70;;
11451;SDS011;5782;47.872;11.478;2022-07-09T04:16:34;3.65;;;2.92;;
11451;SDS011;5782;47.872;11.478;2022-07-09T04:19:00;4.05;;;2.70;;
11451;SDS011;5782;47.872;11.478;2022-07-09T04:21:26;3.30;;;2.83;;
11451;SDS011;5782;47.872;11.478;2022-07-09T04:23:52;4.28;;;2.85;;
11451;SDS011;5782;47.872;11.478;2022-07-09T04:26:18;3.50;;;2.70;;
11451;SDS011;5782;47.872;11.478;2022-07-09T04:28:45;5.55;;;2.90;;
11451;SDS011;5782;47.872;11.478;2022-07-09T04:31:11;4.25;;;3.03;;
11451;SDS011;5782;47.872;11.478;2022-07-09T04:33:37;3.28;;;2.97;;
11451;SDS011;5782;47.872;11.478;2022-07-09T04:36:03;3.10;;;2.80;;
11451;SDS011;5782;47.872;11.478;2022-07-09T04:38:29;3.03;;;2.72;;
11451;SDS011;5782;47.872;11.478;2022-07-09T04:40:56;4.07;;;2.95;;
11451;SDS011;5782;47.872;11.478;2022-07-09T04:43:23;3.45;;;3.00;;
11451;SDS011;5782;47.872;11.478;2022-07-09T04:45:49;4.03;;;2.50;;
11451;SDS011;5782;47.872;11.478;2022-07-09T04:48:15;3.00;;;2.70;;
11451;SDS011;5782;47.872;11.478;2022-07-09T04:50:41;3.05;;;2.78;;
11451;SDS011;5782;47.872;11.478;2022-07-09T04:53:07;3.95;;;2.90;;
11451;SDS011;5782;47.872;11.478;2022-07-09T04:55:33;4.03;;;3.08;;
11451;SDS011;5782;47.872;11.478;2022-07-09T04:57:59;4.28;;;2.65;;
11451;SDS011;5782;47.872;11.478;2022-07-09T05:00:25;4.93;;;2.85;;
11451;SDS011;5782;47.872;11.478;2022-07-09T05:02:50;3.95;;;2.80;;
11451;SDS011;5782;47.872;11.478;2022-07-09T05:05:17;4.25;;;2.63;;
11451;SDS011;5782;47.872;11.478;2022-07-09T05:07:47;2.60;;;2.40;;
11451;SDS011;5782;47.872;11.478;2022-07-09T05:10:13;2.85;;;2.55;;
11451;SDS011;5782;47.872;11.478;2022-07-09T05:12:39;3.30;;;2.40;;
11451;SDS011;5782;47.872;11.478;2022-07-09T05:15:05;3.20;;;2.90;;
11451;SDS011;5782;47.872;11.478;2022-07-09T05:17:34;3.70;;;3.30;;
11451;SDS011;5782;47.872;11.478;2022-07-09T05:20:01;4.05;;;2.92;;
11451;SDS011;5782;47.872;11.478;2022-07-09T05:22:29;3.35;;;2.30;;
11451;SDS011;5782;47.872;11.478;2022-07-09T05:24:55;3.42;;;2.50;;
11451;SDS011;5782;47.872;11.478;2022-07-09T05:27:22;3.47;;;2.75;;
11451;SDS011;5782;47.872;11.478;2022-07-09T05:29:48;3.00;;;2.70;;
11451;SDS011;5782;47.872;11.478;2022-07-09T05:32:15;3.38;;;2.40;;
11451;SDS011;5782;47.872;11.478;2022-07-09T05:34:41;2.72;;;2.53;;
11451;SDS011;5782;47.872;11.478;2022-07-09T05:37:07;2.83;;;2.63;;
11451;SDS011;5782;47.872;11.478;2022-07-09T05:39:33;2.42;;;2.22;;
11451;SDS011;5782;47.872;11.478;2022-07-09T05:41:59;3.50;;;2.38;;
11451;SDS011;5782;47.872;11.478;2022-07-09T05:44:25;5.63;;;2.90;;
11451;SDS011;5782;47.872;11.478;2022-07-09T05:46:51;3.47;;;2.70;;
11451;SDS011;5782;47.872;11.478;2022-07-09T05:49:17;4.05;;;2.92;;
11451;SDS011;5782;47.872;11.478;2022-07-09T05:51:43;3.35;;;3.00;;
11451;SDS011;5782;47.872;11.478;2022-07-09T05:54:10;3.17;;;2.55;;
11451;SDS011;5782;47.872;11.478;2022-07-09T05:56:36;4.82;;;3.00;;
11451;SDS011;5782;47.872;11.478;2022-07-09T05:59:02;4.47;;;2.65;;
11451;SDS011;5782;47.872;11.478;2022-07-09T06:01:29;3.42;;;2.75;;
11451;SDS011;5782;47.872;11.478;2022-07-09T06:03:55;3.20;;;2.78;;
11451;SDS011;5782;47.872;11.478;2022-07-09T06:06:21;2.70;;;2.50;;
11451;SDS011;5782;47.872;11.478;2022-07-09T06:08:48;3.05;;;2.63;;
11451;SDS011;5782;47.872;11.478;2022-07-09T06:11:14;4.22;;;2.60;;
11451;SDS011;5782;47.872;11.478;2022-07-09T06:13:40;3.60;;;2.60;;
11451;SDS011;5782;47.872;11.478;2022-07-09T06:16:06;3.33;;;2.55;;
11451;SDS011;5782;47.872;11.478;2022-07-09T06:18:32;3.10;;;2.80;;
11451;SDS011;5782;47.872;11.478;2022-07-09T06:20:58;3.15;;;2.50;;
11451;SDS011;5782;47.872;11.478;2022-07-09T06:23:25;4.18;;;2.42;;
11451;SDS011;5782;47.872;11.478;2022-07-09T06:25:51;2.95;;;2.30;;
11451;SDS011;5782;47.872;11.478;2022-07-09T06:28:17;3.35;;;2.40;;
11451;SDS011;5782;47.872;11.478;2022-07-09T06:30:44;2.78;;;2.25;;
11451;SDS011;5782;47.872;11.478;2022-07-09T06:33:10;4.35;;;2.50;;
11451;SDS011;5782;47.872;11.478;2022-07-09T06:35:38;3.75;;;2.17;;
11451;SDS011;5782;47.872;11.478;2022-07-09T06:38:04;2.40;;;2.20;;
11451;SDS011;5782;47.872;11.478;2022-07-09T06:40:30;4.13;;;2.40;;
11451;SDS011;5782;47.872;11.478;2022-07-09T06:42:56;4.72;;;2.60;;
11451;SDS011;5782;47.872;11.478;2022-07-09T06:45:22;3.40;;;2.25;;
11451;SDS011;5782;47.872;11.478;2022-07-09T06:47:48;4.47;;;2.22;;
11451;SDS011;5782;47.872;11.478;2022-07-09T06:50:14;3.65;;;2.35;;
11451;SDS011;5782;47.872;11.478;2022-07-09T06:52:40;4.82;;;2.40;;
11451;SDS011;5782;47.872;11.478;2022-07-09T06:55:06;4.75;;;2.30;;
11451;SDS011;5782;47.872;11.478;2022-07-09T06:57:33;3.22;;;2.15;;
11451;SDS011;5782;47.872;11.478;2022-07-09T06:59:59;4.35;;;2.42;;
11451;SDS011;5782;47.872;11.478;2022-07-09T07:02:26;2.92;;;2.20;;
11451;SDS011;5782;47.872;11.478;2022-07-09T07:04:52;2.70;;;2.20;;
11451;SDS011;5782;47.872;11.478;2022-07-09T07:07:18;2.63;;;2.10;;
11451;SDS011;5782;47.872;11.478;2022-07-09T07:09:45;3.08;;;2.25;;
11451;SDS011;5782;47.872;11.478;2022-07-09T07:12:11;2.33;;;2.13;;
11451;SDS011;5782;47.872;11.478;2022-07-09T07:14:37;3.60;;;2.30;;
11451;SDS011;5782;47.872;11.478;2022-07-09T07:17:03;2.05;;;1.95;;
11451;SDS011;5782;47.872;11.478;2022-07-09T07:19:29;2.45;;;2.13;;
11451;SDS011;5782;47.872;11.478;2022-07-09T07:21:55;3.17;;;2.28;;
11451;SDS011;5782;47.872;11.478;2022-07-09T07:24:21;2.65;;;2.22;;
11451;SDS011;5782;47.872;11.478;2022-07-09T07:26:47;2.30;;;2.10;;
11451;SDS011;5782;47.872;11.478;2022-07-09T07:29:13;3.60;;;2.13;;
11451;SDS011;5782;47.872;11.478;2022-07-09T07:31:39;3.95;;;2.30;;
11451;SDS011;5782;47.872;11.478;2022-07-09T07:34:05;4.10;;;2.17;;
11451;SDS011;5782;47.872;11.478;2022-07-09T07:36:31;3.00;;;2.17;;
11451;SDS011;5782;47.872;11.478;2022-07-09T07:38:59;3.42;;;2.17;;
11451;SDS011;5782;47.872;11.478;2022-07-09T07:41:25;3.63;;;2.00;;
11451;SDS011;5782;47.872;11.478;2022-07-09T07:43:51;3.20;;;2.08;;
11451;SDS011;5782;47.872;11.478;2022-07-09T07:46:17;2.15;;;1.35;;
11451;SDS011;5782;47.872;11.478;2022-07-09T07:48:43;3.20;;;1.75;;
11451;SDS011;5782;47.872;11.478;2022-07-09T07:51:09;4.63;;;1.95;;
11451;SDS011;5782;47.872;11.478;2022-07-09T07:53:35;3.85;;;2.10;;
11451;SDS011;5782;47.872;11.478;2022-07-09T07:56:05;2.03;;;1.80;;
11451;SDS011;5782;47.872;11.478;2022-07-09T07:58:31;3.45;;;2.10;;
11451;SDS011;5782;47.872;11.478;2022-07-09T08:00:57;3.35;;;2.00;;
11451;SDS011;5782;47.872;11.478;2022-07-09T08:03:23;2.60;;;1.90;;
11451;SDS011;5782;47.872;11.478;2022-07-09T08:05:49;1.95;;;1.73;;
11451;SDS011;5782;47.872;11.478;2022-07-09T08:08:15;2.72;;;1.92;;
11451;SDS011;5782;47.872;11.478;2022-07-09T08:10:43;2.78;;;1.77;;
11451;SDS011;5782;47.872;11.478;2022-07-09T08:13:09;2.63;;;2.03;;
11451;SDS011;5782;47.872;11.478;2022-07-09T08:15:36;3.72;;;1.95;;
11451;SDS011;5782;47.872;11.478;2022-07-09T08:18:03;3.17;;;2.50;;
11451;SDS011;5782;47.872;11.478;2022-07-09T08:20:29;4.07;;;2.00;;
11451;SDS011;5782;47.872;11.478;2022-07-09T08:22:55;3.97;;;2.30;;
11451;SDS011;5782;47.872;11.478;2022-07-09T08:25:21;3.40;;;2.10;;
11451;SDS011;5782;47.872;11.478;2022-07-09T08:27:47;4.53;;;1.98;;
11451;SDS011;5782;47.872;11.478;2022-07-09T08:30:14;2.42;;;1.92;;
11451;SDS011;5782;47.872;11.478;2022-07-09T08:32:40;4.50;;;2.08;;
11451;SDS011;5782;47.872;11.478;2022-07-09T08:35:06;3.95;;;1.80;;
11451;SDS011;5782;47.872;11.478;2022-07-09T08:37:33;4.20;;;1.95;;
11451;SDS011;5782;47.872;11.478;2022-07-09T08:39:59;5.05;;;1.90;;
11451;SDS011;5782;47.872;11.478;2022-07-09T08:42:26;3.45;;;1.92;;
11451;SDS011;5782;47.872;11.478;2022-07-09T08:44:52;2.20;;;1.50;;
11451;SDS011;5782;47.872;11.478;2022-07-09T08:47:20;4.05;;;1.70;;
11451;SDS011;5782;47.872;11.478;2022-07-09T08:49:47;4.15;;;2.05;;
11451;SDS011;5782;47.872;11.478;2022-07-09T08:52:14;4.90;;;1.85;;
11451;SDS011;5782;47.872;11.478;2022-07-09T08:54:41;2.70;;;1.63;;
11451;SDS011;5782;47.872;11.478;2022-07-09T08:57:08;2.80;;;1.55;;
11451;SDS011;5782;47.872;11.478;2022-07-09T08:59:34;2.88;;;1.65;;
11451;SDS011;5782;47.872;11.478;2022-07-09T09:02:03;4.18;;;1.60;;
11451;SDS011;5782;47.872;11.478;2022-07-09T09:04:29;5.03;;;1.70;;
11451;SDS011;5782;47.872;11.478;2022-07-09T09:06:56;2.20;;;1.58;;
11451;SDS011;5782;47.872;11.478;2022-07-09T09:09:22;4.72;;;1.63;;
11451;SDS011;5782;47.872;11.478;2022-07-09T09:11:48;3.28;;;1.85;;
11451;SDS011;5782;47.872;11.478;2022-07-09T09:14:19;1.90;;;1.30;;
11451;SDS011;5782;47.872;11.478;2022-07-09T09:16:46;3.35;;;1.52;;
11451;SDS011;5782;47.872;11.478;2022-07-09T09:19:12;2.22;;;1.50;;
11451;SDS011;5782;47.872;11.478;2022-07-09T09:21:39;2.85;;;1.45;;
11451;SDS011;5782;47.872;11.478;2022-07-09T09:24:05;2.75;;;1.35;;
11451;SDS011;5782;47.872;11.478;2022-07-09T09:26:31;1.88;;;1.63;;
11451;SDS011;5782;47.872;11.478;2022-07-09T09:29:02;1.95;;;1.45;;
11451;SDS011;5782;47.872;11.478;2022-07-09T09:31:29;3.03;;;1.50;;
11451;SDS011;5782;47.872;11.478;2022-07-09T09:34:17;3.35;;;1.40;;
11451;SDS011;5782;47.872;11.478;2022-07-09T09:36:42;2.95;;;1.30;;
11451;SDS011;5782;47.872;11.478;2022-07-09T09:39:10;3.00;;;1.70;;
11451;SDS011;5782;47.872;11.478;2022-07-09T09:41:36;2.35;;;1.38;;
11451;SDS011;5782;47.872;11.478;2022-07-09T09:44:04;2.60;;;1.58;;
11451;SDS011;5782;47.872;11.478;2022-07-09T09:46:32;1.50;;;1.35;;
11451;SDS011;5782;47.872;11.478;2022-07-09T09:48:59;2.33;;;1.30;;
11451;SDS011;5782;47.872;11.478;2022-07-09T09:51:27;2.00;;;1.30;;
11451;SDS011;5782;47.872;11.478;2022-07-09T09:53:56;2.88;;;1.70;;
11451;SDS011;5782;47.872;11.478;2022-07-09T09:56:23;2.03;;;1.40;;
11451;SDS011;5782;47.872;11.478;2022-07-09T09:58:49;3.47;;;2.05;;
11451;SDS011;5782;47.872;11.478;2022-07-09T10:01:16;2.95;;;1.50;;
11451;SDS011;5782;47.872;11.478;2022-07-09T10:03:42;2.53;;;1.50;;
11451;SDS011;5782;47.872;11.478;2022-07-09T10:06:09;3.38;;;1.70;;
11451;SDS011;5782;47.872;11.478;2022-07-09T10:08:35;3.60;;;1.55;;
11451;SDS011;5782;47.872;11.478;2022-07-09T10:11:01;2.30;;;1.60;;
11451;SDS011;5782;47.872;11.478;2022-07-09T10:13:27;1.65;;;1.40;;
11451;SDS011;5782;47.872;11.478;2022-07-09T10:15:54;3.35;;;1.50;;
11451;SDS011;5782;47.872;11.478;2022-07-09T10:18:20;2.60;;;1.45;;
11451;SDS011;5782;47.872;11.478;2022-07-09T10:20:46;2.90;;;1.35;;
11451;SDS011;5782;47.872;11.478;2022-07-09T10:23:22;1.58;;;1.30;;
11451;SDS011;5782;47.872;11.478;2022-07-09T10:25:48;4.10;;;1.55;;
11451;SDS011;5782;47.872;11.478;2022-07-09T10:28:18;1.90;;;1.20;;
11451;SDS011;5782;47.872;11.478;2022-07-09T10:30:44;3.65;;;1.40;;
11451;SDS011;5782;47.872;11.478;2022-07-09T10:33:11;1.70;;;1.30;;
11451;SDS011;5782;47.872;11.478;2022-07-09T10:35:50;2.50;;;1.08;;
11451;SDS011;5782;47.872;11.478;2022-07-09T10:38:17;2.63;;;1.10;;
11451;SDS011;5782;47.872;11.478;2022-07-09T10:43:09;1.30;;;1.17;;
11451;SDS011;5782;47.872;11.478;2022-07-09T10:48:02;3.60;;;1.50;;
11451;SDS011;5782;47.872;11.478;2022-07-09T10:50:30;4.38;;;1.67;;
11451;SDS011;5782;47.872;11.478;2022-07-09T10:52:56;1.92;;;1.40;;
11451;SDS011;5782;47.872;11.478;2022-07-09T10:55:27;2.80;;;1.40;;
11451;SDS011;5782;47.872;11.478;2022-07-09T10:57:54;2.10;;;1.48;;
11451;SDS011;5782;47.872;11.478;2022-07-09T11:00:21;2.28;;;1.20;;
11451;SDS011;5782;47.872;11.478;2022-07-09T11:05:45;4.07;;;1.40;;
11451;SDS011;5782;47.872;11.478;2022-07-09T11:08:11;2.25;;;1.27;;
11451;SDS011;5782;47.872;11.478;2022-07-09T11:10:38;2.08;;;1.30;;
11451;SDS011;5782;47.872;11.478;2022-07-09T11:13:05;1.20;;;1.10;;
11451;SDS011;5782;47.872;11.478;2022-07-09T11:15:32;2.30;;;1.30;;
11451;SDS011;5782;47.872;11.478;2022-07-09T11:18:02;1.52;;;1.30;;
11451;SDS011;5782;47.872;11.478;2022-07-09T11:20:29;1.65;;;1.00;;
11451;SDS011;5782;47.872;11.478;2022-07-09T11:22:55;1.35;;;1.20;;
11451;SDS011;5782;47.872;11.478;2022-07-09T11:25:22;1.80;;;1.20;;
11451;SDS011;5782;47.872;11.478;2022-07-09T11:27:49;1.27;;;1.05;;
11451;SDS011;5782;47.872;11.478;2022-07-09T11:30:15;1.20;;;1.10;;
11451;SDS011;5782;47.872;11.478;2022-07-09T11:32:42;3.03;;;1.30;;
11451;SDS011;5782;47.872;11.478;2022-07-09T11:35:08;1.13;;;1.02;;
11451;SDS011;5782;47.872;11.478;2022-07-09T11:37:34;1.27;;;1.00;;
11451;SDS011;5782;47.872;11.478;2022-07-09T11:40:00;2.45;;;1.20;;
11451;SDS011;5782;47.872;11.478;2022-07-09T11:42:27;2.35;;;1.10;;
11451;SDS011;5782;47.872;11.478;2022-07-09T11:44:53;1.20;;;1.10;;
11451;SDS011;5782;47.872;11.478;2022-07-09T11:47:19;1.92;;;0.93;;
11451;SDS011;5782;47.872;11.478;2022-07-09T11:49:48;1.98;;;1.10;;
11451;SDS011;5782;47.872;11.478;2022-07-09T11:52:22;1.70;;;0.80;;
11451;SDS011;5782;47.872;11.478;2022-07-09T11:57:24;2.08;;;1.00;;
11451;SDS011;5782;47.872;11.478;2022-07-09T11:59:50;1.15;;;0.93;;
11451;SDS011;5782;47.872;11.478;2022-07-09T12:02:49;1.90;;;0.93;;
11451;SDS011;5782;47.872;11.478;2022-07-09T12:05:08;1.38;;;1.00;;
11451;SDS011;5782;47.872;11.478;2022-07-09T12:07:34;2.67;;;2.10;;
11451;SDS011;5782;47.872;11.478;2022-07-09T12:12:27;3.00;;;1.00;;
11451;SDS011;5782;47.872;11.478;2022-07-09T12:14:53;1.10;;;1.00;;
11451;SDS011;5782;47.872;11.478;2022-07-09T12:17:21;0.70;;;0.70;;
11451;SDS011;5782;47.872;11.478;2022-07-09T12:19:48;1.70;;;0.90;;
11451;SDS011;5782;47.872;11.478;2022-07-09T12:22:14;0.90;;;0.75;;
11451;SDS011;5782;47.872;11.478;2022-07-09T12:24:40;1.13;;;0.88;;
11451;SDS011;5782;47.872;11.478;2022-07-09T12:27:09;1.33;;;0.80;;
11451;SDS011;5782;47.872;11.478;2022-07-09T12:29:35;1.63;;;0.80;;
11451;SDS011;5782;47.872;11.478;2022-07-09T12:32:01;1.33;;;0.75;;
11451;SDS011;5782;47.872;11.478;2022-07-09T12:34:27;0.60;;;0.60;;
11451;SDS011;5782;47.872;11.478;2022-07-09T12:36:53;0.60;;;0.60;;
11451;SDS011;5782;47.872;11.478;2022-07-09T12:39:19;1.23;;;0.90;;
11451;SDS011;5782;47.872;11.478;2022-07-09T12:41:46;1.58;;;1.00;;
11451;SDS011;5782;47.872;11.478;2022-07-09T12:44:12;2.97;;;1.13;;
11451;SDS011;5782;47.872;11.478;2022-07-09T12:46:38;2.40;;;1.00;;
11451;SDS011;5782;47.872;11.478;2022-07-09T12:49:04;0.90;;;0.80;;
11451;SDS011;5782;47.872;11.478;2022-07-09T12:51:30;0.85;;;0.68;;
11451;SDS011;5782;47.872;11.478;2022-07-09T12:53:56;0.85;;;0.85;;
11451;SDS011;5782;47.872;11.478;2022-07-09T12:56:22;1.50;;;1.00;;
11451;SDS011;5782;47.872;11.478;2022-07-09T12:58:48;0.80;;;0.73;;
11451;SDS011;5782;47.872;11.478;2022-07-09T13:01:14;3.25;;;0.90;;
11451;SDS011;5782;47.872;11.478;2022-07-09T13:03:40;1.13;;;0.95;;
11451;SDS011;5782;47.872;11.478;2022-07-09T13:06:07;1.70;;;0.90;;
11451;SDS011;5782;47.872;11.478;2022-07-09T13:08:51;1.25;;;0.90;;
11451;SDS011;5782;47.872;11.478;2022-07-09T13:11:17;1.75;;;0.80;;
11451;SDS011;5782;47.872;11.478;2022-07-09T13:13:43;0.90;;;0.90;;
11451;SDS011;5782;47.872;11.478;2022-07-09T13:16:09;1.75;;;0.95;;
11451;SDS011;5782;47.872;11.478;2022-07-09T13:18:35;0.75;;;0.70;;
11451;SDS011;5782;47.872;11.478;2022-07-09T13:21:01;0.95;;;0.90;;
11451;SDS011;5782;47.872;11.478;2022-07-09T13:23:27;0.85;;;0.85;;
11451;SDS011;5782;47.872;11.478;2022-07-09T13:25:53;1.20;;;1.10;;
11451;SDS011;5782;47.872;11.478;2022-07-09T13:28:19;1.50;;;0.95;;
11451;SDS011;5782;47.872;11.478;2022-07-09T13:30:45;1.23;;;0.90;;
11451;SDS011;5782;47.872;11.478;2022-07-09T13:33:12;1.63;;;1.10;;
11451;SDS011;5782;47.872;11.478;2022-07-09T13:35:38;1.35;;;0.70;;
11451;SDS011;5782;47.872;11.478;2022-07-09T13:38:04;2.35;;;0.90;;
11451;SDS011;5782;47.872;11.478;2022-07-09T13:40:30;1.00;;;0.77;;
11451;SDS011;5782;47.872;11.478;2022-07-09T13:42:56;2.05;;;0.90;;
11451;SDS011;5782;47.872;11.478;2022-07-09T13:45:22;1.13;;;0.90;;
11451;SDS011;5782;47.872;11.478;2022-07-09T13:47:48;1.30;;;0.90;;
11451;SDS011;5782;47.872;11.478;2022-07-09T13:50:14;1.20;;;0.80;;
11451;SDS011;5782;47.872;11.478;2022-07-09T13:52:40;1.20;;;0.80;;
11451;SDS011;5782;47.872;11.478;2022-07-09T13:55:06;1.52;;;0.90;;
11451;SDS011;5782;47.872;11.478;2022-07-09T13:57:33;2.22;;;0.93;;
11451;SDS011;5782;47.872;11.478;2022-07-09T13:59:59;1.75;;;1.08;;
11451;SDS011;5782;47.872;11.478;2022-07-09T14:02:25;1.65;;;1.10;;
11451;SDS011;5782;47.872;11.478;2022-07-09T14:04:51;1.67;;;1.00;;
11451;SDS011;5782;47.872;11.478;2022-07-09T14:07:17;1.23;;;1.02;;
11451;SDS011;5782;47.872;11.478;2022-07-09T14:09:43;1.45;;;0.82;;
11451;SDS011;5782;47.872;11.478;2022-07-09T14:12:09;2.00;;;1.17;;
11451;SDS011;5782;47.872;11.478;2022-07-09T14:14:35;1.10;;;0.98;;
11451;SDS011;5782;47.872;11.478;2022-07-09T14:17:02;1.25;;;1.05;;
11451;SDS011;5782;47.872;11.478;2022-07-09T14:19:28;1.73;;;0.98;;
11451;SDS011;5782;47.872;11.478;2022-07-09T14:21:54;1.60;;;1.00;;
11451;SDS011;5782;47.872;11.478;2022-07-09T14:24:20;2.88;;;1.35;;
11451;SDS011;5782;47.872;11.478;2022-07-09T14:26:46;1.80;;;1.10;;
11451;SDS011;5782;47.872;11.478;2022-07-09T14:29:13;1.85;;;1.05;;
11451;SDS011;5782;47.872;11.478;2022-07-09T14:31:39;1.08;;;0.90;;
11451;SDS011;5782;47.872;11.478;2022-07-09T14:34:05;1.52;;;1.10;;
11451;SDS011;5782;47.872;11.478;2022-07-09T14:36:31;1.35;;;1.10;;
11451;SDS011;5782;47.872;11.478;2022-07-09T14:38:57;1.23;;;0.98;;
11451;SDS011;5782;47.872;11.478;2022-07-09T14:41:23;1.02;;;0.95;;
11451;SDS011;5782;47.872;11.478;2022-07-09T14:43:49;1.20;;;0.90;;
11451;SDS011;5782;47.872;11.478;2022-07-09T14:46:15;1.10;;;1.00;;
11451;SDS011;5782;47.872;11.478;2022-07-09T14:48:41;4.28;;;1.00;;
11451;SDS011;5782;47.872;11.478;2022-07-09T14:51:08;1.23;;;0.80;;
11451;SDS011;5782;47.872;11.478;2022-07-09T14:53:34;2.10;;;1.00;;
11451;SDS011;5782;47.872;11.478;2022-07-09T14:56:00;1.00;;;0.80;;